Time;durP1;ratioP1;P1;durP2;ratioP2;P2;SDS_P1;SDS_P2;PMS_P1;PMS_P2;Temp;Humidity;BMP_temperature;BMP_pressure;BME280_temperature;BME280_humidity;BME280_pressure;Samples;Min_cycle;Max_cycle;Signal;HPM_P1;HPM_P2
2022/07/11 00:02:13;;;;;;;4.93;1.05;;;23.80;69.50;;;;;;4826588;29;20022;-86
2022/07/11 00:04:39;;;;;;;4.45;0.85;;;23.70;70.10;;;;;;4829658;29;20072;-86
2022/07/11 00:07:05;;;;;;;3.70;0.93;;;23.60;70.00;;;;;;4826028;29;20035;-86
2022/07/11 00:09:32;;;;;;;4.35;0.90;;;23.60;70.30;;;;;;4824535;29;20038;-86
2022/07/11 00:11:58;;;;;;;3.28;0.70;;;23.60;70.50;;;;;;4824566;29;20019;-86
2022/07/11 00:14:24;;;;;;;1.67;0.80;;;23.60;70.60;;;;;;4823097;29;20050;-86
2022/07/11 00:16:52;;;;;;;2.85;0.90;;;23.60;70.50;;;;;;4831937;29;20159;-86
2022/07/11 00:19:19;;;;;;;2.75;0.98;;;23.50;70.80;;;;;;4829415;29;20031;-86
2022/07/11 00:21:47;;;;;;;1.60;0.73;;;23.40;71.10;;;;;;4829116;29;20557;-86
2022/07/11 00:24:13;;;;;;;2.58;0.90;;;23.40;71.30;;;;;;4828259;29;20460;-86
2022/07/11 00:26:38;;;;;;;6.47;0.90;;;23.40;71.50;;;;;;4826361;29;20034;-86
2022/07/11 00:29:05;;;;;;;2.95;0.75;;;23.40;71.40;;;;;;4827041;29;20022;-86
2022/07/11 00:31:31;;;;;;;4.63;1.13;;;23.40;71.30;;;;;;4824718;29;20395;-86
2022/07/11 00:33:57;;;;;;;5.10;0.93;;;23.40;71.80;;;;;;4836224;29;20025;-86
2022/07/11 00:36:22;;;;;;;4.07;0.93;;;23.30;71.70;;;;;;4823337;29;20145;-86
2022/07/11 00:38:48;;;;;;;4.25;0.80;;;23.30;71.40;;;;;;4822724;29;20034;-86
2022/07/11 00:41:14;;;;;;;4.68;1.52;;;23.20;71.50;;;;;;4828160;29;20250;-86
2022/07/11 00:43:41;;;;;;;3.75;0.98;;;23.20;72.10;;;;;;4827467;29;20027;-86
2022/07/11 00:46:08;;;;;;;3.17;0.80;;;23.20;72.20;;;;;;4826682;29;20083;-86
2022/07/11 00:48:35;;;;;;;3.22;0.77;;;23.10;72.10;;;;;;4825968;29;20053;-86
2022/07/11 00:51:04;;;;;;;2.45;0.73;;;23.10;72.40;;;;;;4828707;29;20105;-86
2022/07/11 00:53:30;;;;;;;4.50;1.02;;;23.00;73.10;;;;;;4827513;29;20022;-86
2022/07/11 00:55:57;;;;;;;5.68;0.80;;;23.00;73.30;;;;;;4831516;29;20062;-86
2022/07/11 00:58:23;;;;;;;3.40;1.00;;;23.00;73.50;;;;;;4844259;29;20018;-86
2022/07/11 01:00:49;;;;;;;6.68;0.90;;;23.00;73.40;;;;;;4825379;29;20035;-86
2022/07/11 01:03:16;;;;;;;2.70;0.68;;;23.10;73.40;;;;;;4827361;29;20036;-86
2022/07/11 01:05:42;;;;;;;5.20;1.15;;;23.10;73.30;;;;;;4835558;29;20058;-86
2022/07/11 01:08:08;;;;;;;6.20;1.00;;;23.00;73.60;;;;;;4825004;29;20069;-86
2022/07/11 01:10:34;;;;;;;3.25;0.98;;;22.90;73.70;;;;;;4822869;29;20248;-86
2022/07/11 01:13:00;;;;;;;2.15;0.90;;;22.90;73.70;;;;;;4822696;29;20027;-86
2022/07/11 01:15:26;;;;;;;1.88;0.80;;;22.90;73.70;;;;;;4827426;29;20511;-86
2022/07/11 01:17:54;;;;;;;1.52;0.70;;;22.90;73.60;;;;;;4827203;29;20487;-86
2022/07/11 01:20:24;;;;;;;4.50;1.15;;;22.90;73.80;;;;;;4830762;29;20334;-86
2022/07/11 01:22:56;;;;;;;3.15;0.77;;;22.90;74.00;;;;;;4825564;29;20046;-86
2022/07/11 01:25:30;;;;;;;2.28;0.90;;;22.90;74.30;;;;;;4826522;29;20026;-87
2022/07/11 01:27:58;;;;;;;2.45;0.98;;;22.90;74.10;;;;;;4824521;29;20034;-86
2022/07/11 01:30:25;;;;;;;3.35;0.90;;;22.80;74.30;;;;;;4825842;29;20030;-86
2022/07/11 01:32:52;;;;;;;2.92;0.85;;;22.80;74.40;;;;;;4821596;29;20380;-86
2022/07/11 01:35:18;;;;;;;3.25;1.10;;;22.70;74.50;;;;;;4822684;29;20057;-86
2022/07/11 01:37:43;;;;;;;3.85;0.90;;;22.60;75.10;;;;;;4821836;29;20063;-86
2022/07/11 01:40:10;;;;;;;5.07;1.20;;;22.60;75.50;;;;;;4827003;29;20026;-86
2022/07/11 01:42:35;;;;;;;7.25;0.80;;;22.70;75.30;;;;;;4831527;29;20033;-86
2022/07/11 01:45:01;;;;;;;3.55;0.80;;;22.70;74.90;;;;;;4835090;29;20571;-86
2022/07/11 01:47:27;;;;;;;4.15;1.00;;;22.70;75.30;;;;;;4828827;29;20014;-86
2022/07/11 01:49:53;;;;;;;5.82;0.70;;;22.70;75.50;;;;;;4825488;29;20225;-87
2022/07/11 01:52:19;;;;;;;6.43;1.10;;;22.50;75.80;;;;;;4824313;29;20251;-86
2022/07/11 01:54:44;;;;;;;9.63;1.23;;;22.50;76.40;;;;;;4829754;29;20026;-87
2022/07/11 01:57:10;;;;;;;7.95;1.23;;;22.50;76.20;;;;;;4826891;29;20098;-87
2022/07/11 01:59:36;;;;;;;3.65;0.80;;;22.50;76.20;;;;;;4826462;29;20034;-87
2022/07/11 02:02:02;;;;;;;4.18;0.90;;;22.40;76.10;;;;;;4825929;29;20042;-86
2022/07/11 02:04:28;;;;;;;5.18;1.00;;;22.30;76.70;;;;;;4827694;29;20034;-86
2022/07/11 02:06:53;;;;;;;3.38;0.93;;;22.40;76.80;;;;;;4824857;29;20087;-86
2022/07/11 02:09:20;;;;;;;6.15;1.00;;;22.40;76.60;;;;;;4822647;29;20078;-86
2022/07/11 02:11:46;;;;;;;1.83;0.90;;;22.30;76.70;;;;;;4822303;29;20456;-86
2022/07/11 02:14:12;;;;;;;5.45;1.05;;;22.20;77.40;;;;;;4821548;29;20109;-86
2022/07/11 02:16:38;;;;;;;5.18;1.00;;;22.20;77.80;;;;;;4828588;29;20030;-86
2022/07/11 02:19:06;;;;;;;1.98;0.95;;;22.20;77.90;;;;;;4829259;29;20052;-86
2022/07/11 02:21:32;;;;;;;4.03;0.85;;;22.20;77.80;;;;;;4825575;29;20027;-86
2022/07/11 02:23:58;;;;;;;2.88;1.05;;;22.20;77.50;;;;;;4828113;29;20101;-86
2022/07/11 02:26:23;;;;;;;7.53;1.23;;;22.20;78.10;;;;;;4823979;29;20121;-86
2022/07/11 02:28:49;;;;;;;8.13;1.10;;;22.20;78.20;;;;;;4826065;29;20049;-85
2022/07/11 02:31:15;;;;;;;4.28;0.80;;;22.10;78.30;;;;;;4822892;29;20057;-86
2022/07/11 02:33:40;;;;;;;4.57;1.00;;;22.10;78.50;;;;;;4822483;29;20106;-86
2022/07/11 02:36:07;;;;;;;5.22;1.05;;;22.10;78.80;;;;;;4821649;29;20086;-86
2022/07/11 02:38:33;;;;;;;3.97;1.23;;;22.10;78.40;;;;;;4821441;29;20027;-86
2022/07/11 02:40:59;;;;;;;2.78;1.17;;;22.10;78.60;;;;;;4831850;29;20422;-86
2022/07/11 02:43:26;;;;;;;4.40;1.25;;;22.00;79.00;;;;;;4825939;29;20656;-86
2022/07/11 02:45:51;;;;;;;4.50;1.10;;;21.90;79.10;;;;;;4828036;29;20065;-86
2022/07/11 02:48:17;;;;;;;10.18;1.55;;;22.00;79.60;;;;;;4824539;29;20118;-86
2022/07/11 02:50:43;;;;;;;5.50;1.23;;;22.00;79.20;;;;;;4826557;29;20219;-86
2022/07/11 02:53:09;;;;;;;5.55;1.20;;;21.90;79.70;;;;;;4827467;29;20058;-87
2022/07/11 02:55:34;;;;;;;4.68;1.20;;;22.00;79.70;;;;;;4829677;29;20066;-86
2022/07/11 02:58:00;;;;;;;4.45;1.27;;;22.00;80.00;;;;;;4830727;29;20152;-86
2022/07/11 03:00:26;;;;;;;2.88;1.40;;;21.90;79.60;;;;;;4828943;29;20026;-86
2022/07/11 03:02:52;;;;;;;4.25;0.98;;;21.90;80.50;;;;;;4827022;29;20083;-86
2022/07/11 03:05:17;;;;;;;6.95;1.13;;;21.90;80.20;;;;;;4828035;29;20061;-86
2022/07/11 03:07:43;;;;;;;8.65;1.08;;;21.80;80.40;;;;;;4837890;29;20038;-86
2022/07/11 03:10:09;;;;;;;8.00;1.15;;;21.80;80.90;;;;;;4825638;29;20504;-86
2022/07/11 03:12:35;;;;;;;4.32;0.98;;;21.80;80.50;;;;;;4824144;29;20034;-86
2022/07/11 03:15:00;;;;;;;6.57;0.93;;;21.70;81.30;;;;;;4826204;29;20492;-86
2022/07/11 03:17:26;;;;;;;4.13;0.90;;;21.80;81.30;;;;;;4826813;29;20090;-86
2022/07/11 03:19:52;;;;;;;3.97;0.90;;;21.70;81.20;;;;;;4829006;29;20030;-86
2022/07/11 03:22:18;;;;;;;2.58;0.82;;;21.70;81.10;;;;;;4831596;29;20082;-86
2022/07/11 03:24:44;;;;;;;5.82;1.20;;;21.70;81.60;;;;;;4826890;29;20041;-86
2022/07/11 03:27:10;;;;;;;5.05;1.00;;;21.60;81.70;;;;;;4828980;29;20492;-86
2022/07/11 03:29:36;;;;;;;2.20;0.80;;;21.60;81.90;;;;;;4825528;29;20034;-86
2022/07/11 03:32:02;;;;;;;4.00;0.90;;;21.60;81.80;;;;;;4826331;29;20061;-86
2022/07/11 03:34:27;;;;;;;1.98;0.90;;;21.50;82.10;;;;;;4837749;29;20129;-86
2022/07/11 03:36:54;;;;;;;4.72;0.90;;;21.50;82.30;;;;;;4823944;29;20192;-86
2022/07/11 03:39:20;;;;;;;2.13;0.73;;;21.50;82.40;;;;;;4828092;29;20030;-86
2022/07/11 03:41:46;;;;;;;5.20;1.20;;;21.50;82.40;;;;;;4828657;29;20026;-86
2022/07/11 03:44:12;;;;;;;9.18;0.85;;;21.40;82.50;;;;;;4832815;29;20034;-86
2022/07/11 03:46:38;;;;;;;6.43;1.08;;;21.40;82.50;;;;;;4827444;29;20460;-86
2022/07/11 03:49:04;;;;;;;2.10;0.80;;;21.40;82.80;;;;;;4839703;29;20109;-86
2022/07/11 03:51:29;;;;;;;5.15;0.88;;;21.40;83.00;;;;;;4826171;29;20034;-86
2022/07/11 03:53:55;;;;;;;5.82;1.00;;;21.40;82.90;;;;;;4828039;29;20034;-86
2022/07/11 03:56:22;;;;;;;4.65;1.10;;;21.40;83.00;;;;;;4830368;29;20082;-86
2022/07/11 03:58:49;;;;;;;6.00;0.90;;;21.40;83.20;;;;;;4829880;29;20436;-87
2022/07/11 04:01:15;;;;;;;8.27;1.00;;;21.30;83.40;;;;;;4834998;29;20058;-86
2022/07/11 04:03:41;;;;;;;4.35;1.20;;;21.30;83.80;;;;;;4829891;29;20402;-86
2022/07/11 04:06:07;;;;;;;2.60;0.85;;;21.30;84.00;;;;;;4824351;29;20454;-86
2022/07/11 04:08:33;;;;;;;5.30;1.02;;;21.30;83.50;;;;;;4824704;29;20389;-86
2022/07/11 04:10:58;;;;;;;2.50;0.65;;;21.20;83.50;;;;;;4823722;29;20022;-86
2022/07/11 04:13:24;;;;;;;7.95;1.17;;;21.20;84.00;;;;;;4825958;29;20251;-86
2022/07/11 04:15:50;;;;;;;2.65;0.85;;;21.10;84.60;;;;;;4831031;29;20074;-86
2022/07/11 04:18:15;;;;;;;3.72;1.10;;;21.00;85.20;;;;;;4837703;29;20037;-86
2022/07/11 04:20:41;;;;;;;6.20;1.30;;;21.10;84.90;;;;;;4830227;29;20031;-86
2022/07/11 04:23:07;;;;;;;5.85;0.93;;;21.10;85.00;;;;;;4826192;29;20027;-86
2022/07/11 04:25:34;;;;;;;3.42;1.25;;;21.10;84.60;;;;;;4828597;29;20033;-85
2022/07/11 04:28:00;;;;;;;2.80;0.90;;;21.10;85.10;;;;;;4824845;29;20027;-86
2022/07/11 04:30:26;;;;;;;3.85;1.10;;;21.10;85.30;;;;;;4825724;29;20504;-85
2022/07/11 04:32:51;;;;;;;5.43;1.15;;;21.10;85.10;;;;;;4823386;29;20026;-86
2022/07/11 04:35:17;;;;;;;4.45;1.15;;;21.10;85.00;;;;;;4823197;29;20067;-86
2022/07/11 04:37:44;;;;;;;6.82;1.00;;;21.10;85.50;;;;;;4828492;29;20089;-87
2022/07/11 04:40:10;;;;;;;5.03;1.17;;;21.10;85.50;;;;;;4828041;29;20011;-89
2022/07/11 04:42:37;;;;;;;6.32;1.05;;;21.00;85.70;;;;;;4832030;29;20038;-88
2022/07/11 04:45:03;;;;;;;1.83;0.80;;;21.00;86.10;;;;;;4826475;29;20030;-87
2022/07/11 04:47:28;;;;;;;3.13;1.15;;;21.00;86.30;;;;;;4829145;29;20057;-88
2022/07/11 04:49:54;;;;;;;6.90;0.82;;;21.10;86.10;;;;;;4836670;29;20395;-86
2022/07/11 04:52:19;;;;;;;9.10;1.10;;;21.10;86.10;;;;;;4825483;29;20046;-87
2022/07/11 04:54:45;;;;;;;5.05;1.08;;;21.10;86.60;;;;;;4837810;29;20361;-87
2022/07/11 04:57:11;;;;;;;4.22;0.90;;;21.10;86.40;;;;;;4829305;29;20030;-87
2022/07/11 04:59:36;;;;;;;6.63;0.93;;;21.10;86.30;;;;;;4821900;29;20026;-87
2022/07/11 05:02:03;;;;;;;3.97;1.00;;;20.90;87.10;;;;;;4820801;29;20034;-87
2022/07/11 05:04:28;;;;;;;5.43;1.10;;;20.90;87.00;;;;;;4833384;29;20057;-87
2022/07/11 05:06:54;;;;;;;7.75;1.10;;;21.00;86.80;;;;;;4821495;29;20483;-88
2022/07/11 05:09:19;;;;;;;6.82;0.98;;;21.00;87.00;;;;;;4821956;29;20432;-88
2022/07/11 05:11:45;;;;;;;5.68;1.25;;;21.00;87.10;;;;;;4842091;29;20527;-88
2022/07/11 05:14:11;;;;;;;7.60;1.02;;;21.00;87.20;;;;;;4829562;29;20518;-88
2022/07/11 05:16:37;;;;;;;4.32;1.00;;;21.00;87.30;;;;;;4827990;29;20083;-88
2022/07/11 05:19:03;;;;;;;4.85;1.00;;;21.10;87.20;;;;;;4833520;29;20325;-88
2022/07/11 05:21:28;;;;;;;5.47;0.85;;;21.10;87.30;;;;;;4838891;29;20034;-88
2022/07/11 05:23:54;;;;;;;6.32;1.00;;;21.10;87.40;;;;;;4843474;29;20307;-88
2022/07/11 05:26:20;;;;;;;5.10;1.13;;;21.00;87.10;;;;;;4828606;29;20083;-88
2022/07/11 05:28:46;;;;;;;6.75;1.63;;;21.00;87.60;;;;;;4838516;29;20026;-88
2022/07/11 05:31:12;;;;;;;3.88;0.88;;;21.00;87.50;;;;;;4827321;29;20034;-88
2022/07/11 05:33:37;;;;;;;3.03;0.90;;;21.00;87.80;;;;;;4830127;29;20026;-88
2022/07/11 05:36:03;;;;;;;7.47;1.70;;;21.00;87.90;;;;;;4831488;29;20034;-88
2022/07/11 05:38:29;;;;;;;4.32;1.10;;;21.00;88.10;;;;;;4839866;29;20063;-90
2022/07/11 05:40:55;;;;;;;3.25;1.02;;;21.00;87.70;;;;;;4826386;29;20030;-89
2022/07/11 05:43:20;;;;;;;3.03;1.00;;;21.00;87.90;;;;;;4832110;29;20038;-87
2022/07/11 05:45:46;;;;;;;4.28;0.88;;;21.10;87.60;;;;;;4827836;29;20075;-86
2022/07/11 05:48:12;;;;;;;5.90;1.00;;;21.10;88.00;;;;;;4828323;29;20037;-86
2022/07/11 05:50:37;;;;;;;4.15;0.93;;;21.20;87.70;;;;;;4824732;29;20031;-86
2022/07/11 05:53:03;;;;;;;3.25;0.80;;;21.20;87.50;;;;;;4824807;29;20665;-86
2022/07/11 05:55:30;;;;;;;5.30;1.55;;;21.30;87.40;;;;;;4825588;29;20036;-87
2022/07/11 05:57:55;;;;;;;5.38;1.35;;;21.30;87.40;;;;;;4826287;29;20034;-86
2022/07/11 06:00:22;;;;;;;3.45;1.23;;;21.30;88.00;;;;;;4824890;29;20030;-86
2022/07/11 06:02:48;;;;;;;4.88;1.38;;;21.30;87.30;;;;;;4834582;29;20034;-87
2022/07/11 06:05:14;;;;;;;2.95;1.00;;;21.30;87.10;;;;;;4823110;29;20097;-86
2022/07/11 06:10:24;;;;;;;;;;;21.40;87.20;;;;;;4827527;29;20082;-86
2022/07/11 06:12:50;;;;;;;6.90;1.00;;;21.50;87.10;;;;;;4825589;29;19917;-86
2022/07/11 06:15:16;;;;;;;5.30;0.90;;;21.60;87.30;;;;;;4830254;29;20104;-86
2022/07/11 06:17:42;;;;;;;6.03;1.00;;;21.70;87.10;;;;;;4825444;29;20434;-86
2022/07/11 06:20:09;;;;;;;9.52;1.10;;;21.70;86.30;;;;;;4827199;29;20095;-86
2022/07/11 06:22:34;;;;;;;4.38;1.08;;;21.80;86.00;;;;;;4824495;29;20023;-87
2022/07/11 06:25:00;;;;;;;5.57;0.93;;;21.80;85.50;;;;;;4822533;29;20046;-87
2022/07/11 06:27:25;;;;;;;3.60;0.90;;;21.80;85.60;;;;;;4825201;29;20109;-86
2022/07/11 06:29:51;;;;;;;5.57;1.15;;;21.90;85.50;;;;;;4825561;29;20168;-87
2022/07/11 06:32:17;;;;;;;3.78;0.88;;;21.90;84.90;;;;;;4825416;29;20023;-87
2022/07/11 06:34:42;;;;;;;4.00;0.90;;;22.10;84.30;;;;;;4830512;29;20091;-87
2022/07/11 06:37:08;;;;;;;4.60;1.13;;;22.20;84.70;;;;;;4832638;29;20086;-86
2022/07/11 06:39:33;;;;;;;5.97;1.00;;;22.20;83.30;;;;;;4832037;29;20110;-86
2022/07/11 06:41:59;;;;;;;2.35;1.00;;;22.30;83.40;;;;;;4829114;29;20037;-86
2022/07/11 06:44:25;;;;;;;6.03;0.98;;;22.30;82.50;;;;;;4830855;29;20132;-87
2022/07/11 06:46:52;;;;;;;7.35;0.88;;;22.40;82.60;;;;;;4826897;29;20026;-86
2022/07/11 06:49:17;;;;;;;7.85;1.00;;;22.40;81.80;;;;;;4828698;29;20022;-87
2022/07/11 06:51:43;;;;;;;2.22;1.02;;;22.50;82.00;;;;;;4826010;29;20035;-86
2022/07/11 06:54:08;;;;;;;2.22;1.00;;;22.60;82.10;;;;;;4828141;29;20049;-87
2022/07/11 06:56:34;;;;;;;4.80;1.13;;;22.70;81.40;;;;;;4829257;29;20352;-87
2022/07/11 06:59:01;;;;;;;3.78;0.90;;;22.80;81.50;;;;;;4826644;29;20029;-86
2022/07/11 07:01:26;;;;;;;3.35;0.98;;;22.90;81.60;;;;;;4827883;29;20026;-86
2022/07/11 07:03:52;;;;;;;9.95;1.10;;;22.90;81.30;;;;;;4825247;29;20022;-86
2022/07/11 07:06:19;;;;;;;5.68;1.20;;;23.00;80.50;;;;;;4824751;29;20054;-87
2022/07/11 07:08:45;;;;;;;3.83;1.15;;;23.10;80.60;;;;;;4824033;29;20027;-87
2022/07/11 07:11:12;;;;;;;6.40;1.25;;;23.10;79.80;;;;;;4829587;29;20080;-86
2022/07/11 07:13:38;;;;;;;8.32;1.00;;;23.20;80.30;;;;;;4833803;29;20491;-87
2022/07/11 07:16:06;;;;;;;3.30;1.00;;;23.30;80.00;;;;;;4828446;29;20030;-86
2022/07/11 07:18:32;;;;;;;4.70;1.00;;;23.40;79.90;;;;;;4830861;29;20018;-86
2022/07/11 07:20:58;;;;;;;5.53;0.93;;;23.50;79.20;;;;;;4826152;29;20030;-87
2022/07/11 07:23:24;;;;;;;7.85;1.20;;;23.50;78.20;;;;;;4827805;29;20026;-86
2022/07/11 07:25:50;;;;;;;4.32;1.08;;;23.60;78.30;;;;;;4824566;29;20038;-87
2022/07/11 07:28:16;;;;;;;3.13;0.93;;;23.70;78.10;;;;;;4824855;29;20034;-87
2022/07/11 07:30:41;;;;;;;5.20;0.82;;;23.70;78.00;;;;;;4824922;29;20035;-87
2022/07/11 07:33:07;;;;;;;3.28;1.20;;;23.80;77.60;;;;;;4823471;29;20078;-87
2022/07/11 07:35:33;;;;;;;4.80;0.95;;;23.80;77.50;;;;;;4832578;29;20026;-87
2022/07/11 07:38:00;;;;;;;4.45;1.00;;;23.90;78.10;;;;;;4830459;29;20014;-87
2022/07/11 07:40:26;;;;;;;5.22;1.40;;;23.90;77.40;;;;;;4829550;29;20047;-87
2022/07/11 07:42:52;;;;;;;4.80;1.27;;;24.00;77.20;;;;;;4829352;29;20030;-87
2022/07/11 07:45:17;;;;;;;9.73;1.00;;;24.00;76.90;;;;;;4837330;29;20431;-87
2022/07/11 07:47:43;;;;;;;8.27;1.20;;;24.10;76.90;;;;;;4828257;29;20555;-86
2022/07/11 07:50:09;;;;;;;4.20;1.10;;;24.10;76.90;;;;;;4824983;29;20581;-86
2022/07/11 07:52:35;;;;;;;4.32;1.10;;;24.20;76.50;;;;;;4824545;29;20023;-87
2022/07/11 07:55:00;;;;;;;6.40;0.82;;;24.30;77.00;;;;;;4830025;29;20034;-87
2022/07/11 07:57:26;;;;;;;5.32;1.10;;;24.40;76.80;;;;;;4825931;29;20038;-87
2022/07/11 08:01:34;;;;;;;4.10;0.88;;;24.60;75.60;;;;;;4827396;29;20057;-86
2022/07/11 08:02:37;;;;;;;4.15;1.10;;;24.70;75.60;;;;;;4824116;29;20034;-87
2022/07/11 08:05:03;;;;;;;5.88;1.00;;;24.80;75.20;;;;;;4824303;29;20077;-86
2022/07/11 08:07:29;;;;;;;4.30;1.10;;;24.90;74.30;;;;;;4822930;29;20038;-87
2022/07/11 08:09:55;;;;;;;4.00;0.90;;;25.00;74.20;;;;;;4831141;29;20579;-86
2022/07/11 08:12:20;;;;;;;5.60;1.40;;;25.20;74.60;;;;;;4831054;29;20214;-86
2022/07/11 08:14:46;;;;;;;7.40;1.10;;;25.30;73.30;;;;;;4827744;29;20069;-86
2022/07/11 08:17:11;;;;;;;4.93;1.35;;;25.40;73.70;;;;;;4830272;29;20034;-87
2022/07/11 08:19:37;;;;;;;10.50;0.93;;;25.50;72.80;;;;;;4826151;29;20543;-86
2022/07/11 08:22:03;;;;;;;3.50;1.13;;;25.60;71.60;;;;;;4828055;29;20491;-87
2022/07/11 08:24:28;;;;;;;11.48;1.30;;;25.60;71.50;;;;;;4824806;29;20159;-86
2022/07/11 08:26:54;;;;;;;10.40;1.65;;;25.70;72.10;;;;;;4825291;29;20121;-86
2022/07/11 08:29:20;;;;;;;8.98;1.45;;;25.80;72.20;;;;;;4822156;29;20428;-86
2022/07/11 08:31:45;;;;;;;4.03;0.85;;;25.90;72.40;;;;;;4822692;29;20034;-86
2022/07/11 08:34:11;;;;;;;2.60;1.00;;;26.00;72.00;;;;;;4828161;29;20388;-86
2022/07/11 08:36:37;;;;;;;5.85;1.10;;;26.00;71.30;;;;;;4827837;29;20528;-87
2022/07/11 08:39:03;;;;;;;8.13;1.15;;;26.10;71.30;;;;;;4826278;29;20036;-86
2022/07/11 08:41:31;;;;;;;7.10;1.10;;;26.20;70.60;;;;;;4826729;29;20177;-86
2022/07/11 08:43:58;;;;;;;2.30;0.80;;;26.20;71.10;;;;;;4829969;29;20029;-86
2022/07/11 08:46:25;;;;;;;7.95;0.95;;;26.30;71.30;;;;;;4824191;29;20392;-86
2022/07/11 08:48:52;;;;;;;9.15;1.40;;;26.40;70.70;;;;;;4824005;29;20449;-86
2022/07/11 08:51:20;;;;;;;5.65;0.80;;;26.40;69.90;;;;;;4823326;29;20026;-86
2022/07/11 08:53:46;;;;;;;4.95;0.82;;;26.50;69.80;;;;;;4825587;29;20030;-87
2022/07/11 08:56:17;;;;;;;8.65;1.30;;;26.50;69.70;;;;;;4826519;29;20118;-87
2022/07/11 08:58:46;;;;;;;3.78;0.90;;;26.60;69.30;;;;;;4824835;29;20029;-87
2022/07/11 09:01:16;;;;;;;8.25;1.20;;;26.60;69.70;;;;;;4824446;29;20083;-86
2022/07/11 09:03:42;;;;;;;8.32;0.98;;;26.80;68.90;;;;;;4822777;29;20019;-87
2022/07/11 09:06:07;;;;;;;5.38;1.02;;;26.80;68.20;;;;;;4821273;29;20408;-86
2022/07/11 09:08:34;;;;;;;3.40;0.90;;;26.80;67.80;;;;;;4840716;29;20082;-85
2022/07/11 09:11:00;;;;;;;4.20;0.95;;;26.90;69.00;;;;;;4828121;29;20521;-85
2022/07/11 09:13:30;;;;;;;2.65;0.90;;;27.00;68.40;;;;;;4829778;29;20403;-85
2022/07/11 09:16:02;;;;;;;7.00;0.90;;;27.10;68.00;;;;;;4826554;29;20091;-85
2022/07/11 09:18:41;;;;;;;7.20;1.25;;;27.10;68.40;;;;;;4827882;29;20515;-85
2022/07/11 09:26:47;;;;;;;8.27;1.13;;;27.50;66.80;;;;;;4824323;29;20045;-86
2022/07/11 09:29:18;;;;;;;4.75;0.90;;;27.50;67.10;;;;;;4816719;29;20038;-86
2022/07/11 09:31:44;;;;;;;2.30;1.00;;;27.70;67.30;;;;;;4816399;29;20038;-86
2022/07/11 09:34:15;;;;;;;2.35;0.90;;;27.80;67.00;;;;;;4832374;29;20030;-86
2022/07/11 09:36:43;;;;;;;3.95;0.98;;;27.90;66.60;;;;;;4831591;29;20515;-85
2022/07/11 09:39:14;;;;;;;4.72;0.82;;;28.00;65.80;;;;;;4830070;29;20025;-86
2022/07/11 09:41:41;;;;;;;5.28;1.00;;;28.00;65.30;;;;;;4835554;29;20062;-86
2022/07/11 09:44:14;;;;;;;5.65;0.95;;;28.10;65.80;;;;;;4827559;29;20391;-86
2022/07/11 09:46:41;;;;;;;3.72;0.90;;;28.20;65.90;;;;;;4823802;29;20035;-86
2022/07/11 09:49:07;;;;;;;5.32;0.90;;;28.30;65.00;;;;;;4824901;29;20025;-86
2022/07/11 09:51:34;;;;;;;4.43;0.80;;;28.40;65.10;;;;;;4822277;29;20063;-85
2022/07/11 09:54:01;;;;;;;7.05;1.30;;;28.60;64.80;;;;;;4824476;29;20479;-86
2022/07/11 09:56:45;;;;;;;2.70;0.93;;;28.70;63.80;;;;;;4826276;29;20026;-86
2022/07/11 09:59:13;;;;;;;5.10;1.10;;;28.70;63.00;;;;;;4823163;29;20491;-85
2022/07/11 10:01:39;;;;;;;6.28;1.00;;;28.70;63.10;;;;;;4822850;29;20046;-85
2022/07/11 10:04:09;;;;;;;5.82;0.93;;;28.70;63.50;;;;;;4821814;29;20034;-85
2022/07/11 10:06:37;;;;;;;2.80;0.80;;;28.70;63.10;;;;;;4825412;29;20042;-85
2022/07/11 10:09:06;;;;;;;5.05;0.65;;;28.80;63.10;;;;;;4829373;29;20495;-86
2022/07/11 10:11:32;;;;;;;2.08;0.65;;;28.90;62.80;;;;;;4827855;29;20121;-85
2022/07/11 10:14:03;;;;;;;2.08;0.95;;;28.90;63.40;;;;;;4827851;29;20041;-85
2022/07/11 10:16:40;;;;;;;2.95;0.70;;;29.10;62.40;;;;;;4824971;29;20019;-85
2022/07/11 10:19:31;;;;;;;4.68;1.00;;;29.10;62.30;;;;;;4825043;29;20486;-86
2022/07/11 10:22:03;;;;;;;5.93;0.82;;;29.10;62.30;;;;;;4822383;29;20038;-85
2022/07/11 10:24:38;;;;;;;4.57;1.00;;;29.20;62.20;;;;;;4822556;29;20510;-86
2022/07/11 10:27:21;;;;;;;5.22;1.05;;;29.40;62.20;;;;;;4823822;29;20042;-86
2022/07/11 10:29:51;;;;;;;4.28;0.82;;;29.40;62.20;;;;;;4821295;29;20034;-85
2022/07/11 10:32:17;;;;;;;2.55;0.60;;;29.50;62.20;;;;;;4825105;29;20113;-85
2022/07/11 10:34:44;;;;;;;4.85;0.68;;;29.60;62.20;;;;;;4827591;29;20117;-85
2022/07/11 10:37:11;;;;;;;3.50;0.82;;;29.80;61.80;;;;;;4827985;29;20014;-86
2022/07/11 10:39:37;;;;;;;3.50;0.75;;;30.00;61.70;;;;;;4826491;29;20039;-86
2022/07/11 10:42:05;;;;;;;2.08;0.80;;;30.10;62.00;;;;;;4825114;29;20083;-85
2022/07/11 10:44:51;;;;;;;5.07;0.60;;;30.20;60.90;;;;;;4824990;29;20030;-86
2022/07/11 10:47:36;;;;;;;3.45;0.90;;;30.30;60.70;;;;;;4824583;29;20030;-86
2022/07/11 10:50:30;;;;;;;4.63;0.90;;;30.30;60.70;;;;;;4822031;29;20039;-86
2022/07/11 10:53:06;;;;;;;6.10;1.03;;;30.40;61.20;;;;;;4821967;29;20030;-86
2022/07/11 10:55:35;;;;;;;3.22;0.60;;;30.60;61.10;;;;;;4817783;29;20567;-85
2022/07/11 10:58:16;;;;;;;8.77;0.82;;;30.60;59.80;;;;;;4824214;29;20043;-86
2022/07/11 11:00:42;;;;;;;5.47;0.82;;;30.70;60.70;;;;;;4821903;29;20041;-86
2022/07/11 11:03:10;;;;;;;4.50;0.80;;;30.80;60.30;;;;;;4821801;29;20022;-86
2022/07/11 11:05:39;;;;;;;4.95;0.80;;;30.90;59.70;;;;;;4829216;29;20081;-86
2022/07/11 11:08:31;;;;;;;3.83;0.70;;;30.90;59.50;;;;;;4827613;29;20365;-86
2022/07/11 11:10:57;;;;;;;4.38;0.60;;;31.00;59.10;;;;;;4825937;29;20267;-86
2022/07/11 11:13:23;;;;;;;4.65;0.60;;;31.10;59.50;;;;;;4828731;29;20532;-86
2022/07/11 11:15:54;;;;;;;8.02;0.80;;;31.20;59.20;;;;;;4828462;29;20026;-85
2022/07/11 11:18:25;;;;;;;5.10;0.60;;;31.30;58.10;;;;;;4828256;29;20354;-86
2022/07/11 11:21:02;;;;;;;5.07;0.65;;;31.30;58.80;;;;;;4826428;29;20030;-86
2022/07/11 11:23:33;;;;;;;1.75;0.52;;;31.50;58.10;;;;;;4826813;29;20047;-86
2022/07/11 11:26:16;;;;;;;7.45;0.80;;;31.50;58.60;;;;;;4824643;29;20046;-86
2022/07/11 11:28:55;;;;;;;8.45;0.70;;;31.70;57.80;;;;;;4824306;29;20500;-86
2022/07/11 11:31:21;;;;;;;4.03;0.60;;;31.80;58.50;;;;;;4829410;29;20496;-86
2022/07/11 11:33:48;;;;;;;3.58;0.70;;;31.80;58.00;;;;;;4831508;29;20049;-86
2022/07/11 11:36:17;;;;;;;4.95;0.88;;;31.90;57.90;;;;;;4829985;29;20491;-86
2022/07/11 11:38:44;;;;;;;4.18;0.50;;;32.00;58.10;;;;;;4828782;29;20080;-86
2022/07/11 11:41:10;;;;;;;8.90;0.90;;;32.10;57.90;;;;;;4828569;29;20030;-86
2022/07/11 11:43:37;;;;;;;2.90;0.52;;;32.30;57.90;;;;;;4825979;29;20109;-85
2022/07/11 11:46:03;;;;;;;5.93;0.60;;;32.30;56.60;;;;;;4825244;29;20107;-86
2022/07/11 11:48:33;;;;;;;7.35;0.70;;;32.30;56.90;;;;;;4824953;29;20027;-86
2022/07/11 11:51:10;;;;;;;1.55;0.57;;;32.30;56.70;;;;;;4824799;29;20062;-86
2022/07/11 11:53:43;;;;;;;3.40;0.52;;;32.40;57.00;;;;;;4825981;29;20031;-85
2022/07/11 11:56:28;;;;;;;5.13;0.90;;;32.60;56.60;;;;;;4826244;29;20018;-85
2022/07/11 11:58:57;;;;;;;3.38;0.70;;;32.70;56.30;;;;;;4820089;29;20031;-86
2022/07/11 12:01:28;;;;;;;2.85;0.60;;;32.80;56.10;;;;;;4823286;29;20235;-86
2022/07/11 12:03:55;;;;;;;5.80;0.80;;;32.90;55.70;;;;;;4823120;29;20022;-85
2022/07/11 12:06:26;;;;;;;6.00;0.70;;;33.00;56.20;;;;;;4823674;29;20058;-86
2022/07/11 12:08:57;;;;;;;4.43;0.50;;;33.10;55.70;;;;;;4831829;29;20105;-85
2022/07/11 12:11:23;;;;;;;3.72;0.60;;;33.20;55.50;;;;;;4828062;29;20038;-85
2022/07/11 12:13:58;;;;;;;5.63;0.55;;;33.30;56.10;;;;;;4830071;29;20029;-85
2022/07/11 12:16:41;;;;;;;4.80;0.57;;;33.40;55.90;;;;;;4825906;29;20030;-86
2022/07/11 12:19:08;;;;;;;6.15;0.65;;;33.50;55.50;;;;;;4824820;29;20099;-85
2022/07/11 12:21:35;;;;;;;7.25;0.68;;;33.60;55.00;;;;;;4824955;29;20057;-86
2022/07/11 12:24:06;;;;;;;3.22;0.60;;;33.70;55.00;;;;;;4824762;29;20030;-86
2022/07/11 12:26:37;;;;;;;2.22;0.60;;;33.70;54.70;;;;;;4822562;29;20038;-86
2022/07/11 12:29:16;;;;;;;7.00;0.70;;;33.70;54.60;;;;;;4824235;29;20030;-85
2022/07/11 12:31:59;;;;;;;5.20;0.57;;;33.80;54.60;;;;;;4829157;29;20111;-85
2022/07/11 12:34:32;;;;;;;5.15;0.55;;;33.90;54.70;;;;;;4827384;29;20065;-85
2022/07/11 12:37:07;;;;;;;3.67;0.50;;;33.90;54.80;;;;;;4827643;29;20035;-84
2022/07/11 12:39:38;;;;;;;7.90;0.70;;;34.30;55.20;;;;;;4827434;29;20109;-85
2022/07/11 12:42:27;;;;;;;2.05;0.43;;;34.50;54.10;;;;;;4826320;29;20132;-85
2022/07/11 12:45:07;;;;;;;1.17;0.40;;;34.60;53.90;;;;;;4819847;29;20050;-85
2022/07/11 12:47:34;;;;;;;3.75;0.63;;;34.70;53.80;;;;;;4825316;29;20034;-85
2022/07/11 12:50:26;;;;;;;4.65;0.40;;;35.00;52.90;;;;;;4822594;29;20067;-85
2022/07/11 12:52:54;;;;;;;3.40;0.60;;;35.30;53.30;;;;;;4824032;29;20399;-85
2022/07/11 12:55:28;;;;;;;2.92;0.60;;;35.30;53.30;;;;;;4824946;29;20054;-85
2022/07/11 12:58:08;;;;;;;7.07;0.75;;;35.30;53.30;;;;;;4821518;29;20031;-85
2022/07/11 13:00:36;;;;;;;10.00;0.63;;;35.50;52.60;;;;;;4823023;29;20101;-85